createdAt,value
2022-12-07T00:01:10.670Z,4.11
2022-12-07T00:03:39.161Z,4.07
2022-12-07T00:06:07.397Z,4.20
2022-12-07T00:08:35.234Z,4.13
2022-12-07T00:11:10.976Z,3.99
2022-12-07T00:13:38.115Z,4.12
2022-12-07T00:16:10.595Z,4.13
2022-12-07T00:18:38.435Z,4.06
2022-12-07T00:21:13.658Z,4.01
2022-12-07T00:23:41.422Z,3.96
2022-12-07T00:26:14.107Z,3.90
2022-12-07T00:28:41.199Z,3.85
2022-12-07T00:31:11.721Z,3.86
2022-12-07T00:33:39.463Z,3.81
2022-12-07T00:36:09.789Z,3.85
2022-12-07T00:38:38.895Z,3.79
2022-12-07T00:41:14.147Z,3.81
2022-12-07T00:43:42.653Z,3.84
2022-12-07T00:46:09.926Z,3.80
2022-12-07T00:48:36.882Z,3.58
2022-12-07T00:51:04.647Z,3.77
2022-12-07T00:53:34.446Z,3.70
2022-12-07T00:56:15.499Z,3.70
2022-12-07T00:58:42.404Z,3.53
2022-12-07T01:01:10.686Z,3.58
2022-12-07T01:03:38.568Z,3.50
2022-12-07T01:06:06.171Z,3.36
2022-12-07T01:08:33.643Z,3.51
2022-12-07T01:11:08.458Z,3.46
2022-12-07T01:13:36.324Z,3.39
2022-12-07T01:16:05.722Z,3.35
2022-12-07T01:18:34.653Z,3.19
2022-12-07T01:21:11.512Z,3.01
2022-12-07T01:23:39.077Z,2.95
2022-12-07T01:26:11.285Z,2.93
2022-12-07T01:28:38.458Z,2.86
2022-12-07T01:31:16.216Z,2.83
2022-12-07T01:33:47.924Z,2.77
2022-12-07T01:36:17.862Z,2.69
2022-12-07T01:38:46.168Z,2.69
2022-12-07T01:41:13.475Z,2.63
2022-12-07T01:44:21.346Z,2.60
2022-12-07T01:46:49.656Z,2.57
2022-12-07T01:49:27.147Z,2.45
2022-12-07T01:51:59.571Z,2.40
2022-12-07T01:54:27.119Z,2.37
2022-12-07T01:56:55.741Z,2.29
2022-12-07T01:59:26.472Z,2.17
2022-12-07T02:01:55.569Z,2.08
2022-12-07T02:04:23.627Z,2.14
2022-12-07T02:06:52.004Z,1.98
2022-12-07T02:09:18.966Z,1.88
2022-12-07T02:11:45.647Z,1.92
2022-12-07T02:14:12.282Z,1.99
2022-12-07T02:16:53.429Z,2.02
2022-12-07T02:19:35.028Z,1.97
2022-12-07T02:22:01.932Z,1.92
2022-12-07T02:24:47.180Z,1.32
2022-12-07T02:27:28.744Z,1.81
2022-12-07T02:30:08.722Z,1.74
2022-12-07T02:32:50.607Z,1.70
2022-12-07T02:35:25.282Z,1.66
2022-12-07T02:37:55.638Z,1.65
2022-12-07T02:40:32.261Z,1.58
2022-12-07T02:43:09.698Z,1.49
2022-12-07T02:45:40.477Z,1.53
2022-12-07T02:48:09.515Z,1.53
2022-12-07T02:50:36.226Z,1.46
2022-12-07T02:53:02.872Z,1.41
2022-12-07T02:55:38.096Z,1.46
2022-12-07T02:58:38.027Z,1.33
2022-12-07T03:01:39.712Z,1.43
2022-12-07T03:04:29.620Z,1.44
2022-12-07T03:07:24.938Z,1.36
2022-12-07T03:10:17.773Z,1.44
2022-12-07T03:12:54.899Z,1.37
2022-12-07T03:15:30.841Z,1.45
2022-12-07T03:17:59.872Z,1.50
2022-12-07T03:20:28.087Z,1.44
2022-12-07T03:22:55.906Z,1.45
2022-12-07T03:25:23.464Z,1.42
2022-12-07T03:27:57.950Z,1.44
2022-12-07T03:30:31.038Z,1.44
2022-12-07T03:33:27.007Z,1.55
2022-12-07T03:36:13.233Z,1.30
2022-12-07T03:38:56.507Z,1.44
2022-12-07T03:41:29.671Z,1.30
2022-12-07T03:43:58.026Z,1.32
2022-12-07T03:46:36.536Z,1.36
2022-12-07T03:49:14.133Z,1.22
2022-12-07T03:52:24.082Z,1.25
2022-12-07T03:54:59.504Z,1.30
2022-12-07T03:57:29.863Z,1.24
2022-12-07T03:59:58.213Z,1.12
2022-12-07T04:02:27.544Z,1.32
2022-12-07T04:04:57.007Z,1.26
2022-12-07T04:07:23.675Z,1.29
2022-12-07T04:09:50.476Z,1.33
2022-12-07T04:12:17.567Z,1.23
2022-12-07T04:14:44.321Z,1.38
2022-12-07T04:17:11.182Z,1.38
2022-12-07T04:19:37.909Z,1.43
2022-12-07T04:22:05.732Z,1.35
2022-12-07T04:24:33.194Z,1.44
2022-12-07T04:27:00.112Z,1.54
2022-12-07T04:29:27.094Z,1.64
2022-12-07T04:31:54.197Z,1.57
2022-12-07T04:34:21.479Z,1.65
2022-12-07T04:36:49.391Z,1.73
2022-12-07T04:39:36.625Z,1.71
2022-12-07T04:42:04.227Z,1.74
2022-12-07T04:44:31.379Z,1.78
2022-12-07T04:46:58.756Z,1.79
2022-12-07T04:49:26.098Z,1.85
2022-12-07T04:51:52.846Z,1.88
2022-12-07T04:54:20.063Z,1.92
2022-12-07T04:56:46.878Z,1.97
2022-12-07T04:59:14.784Z,2.00
2022-12-07T05:01:41.816Z,1.82
2022-12-07T05:04:09.998Z,1.95
2022-12-07T05:06:37.016Z,2.03
2022-12-07T05:09:05.103Z,1.88
2022-12-07T05:11:40.933Z,1.78
2022-12-07T05:14:14.445Z,1.82
2022-12-07T05:16:42.242Z,1.80
2022-12-07T05:19:10.255Z,1.85
2022-12-07T05:21:37.815Z,1.75
2022-12-07T05:24:05.300Z,1.82
2022-12-07T05:26:32.370Z,1.82
2022-12-07T05:28:59.191Z,1.76
2022-12-07T05:31:28.565Z,1.92
2022-12-07T05:33:56.163Z,1.87
2022-12-07T05:36:26.409Z,1.76
2022-12-07T05:38:53.076Z,1.99
2022-12-07T05:41:39.349Z,1.69
2022-12-07T05:44:06.783Z,1.89
2022-12-07T05:46:34.165Z,1.97
2022-12-07T05:49:01.456Z,1.74
2022-12-07T05:51:28.214Z,1.98
2022-12-07T05:53:55.113Z,1.89
2022-12-07T05:56:22.100Z,1.88
2022-12-07T05:59:07.252Z,1.94
2022-12-07T06:01:34.070Z,1.95
2022-12-07T06:04:00.708Z,1.76
2022-12-07T06:06:27.470Z,1.84
2022-12-07T06:08:54.229Z,1.81
2022-12-07T06:11:39.635Z,1.70
2022-12-07T06:14:06.444Z,1.61
2022-12-07T06:16:33.112Z,1.63
2022-12-07T06:18:59.786Z,1.68
2022-12-07T06:21:27.774Z,1.58
2022-12-07T06:23:54.474Z,1.35
2022-12-07T06:26:21.480Z,1.49
2022-12-07T06:28:48.260Z,1.46
2022-12-07T06:31:15.639Z,1.47
2022-12-07T06:33:43.411Z,1.37
2022-12-07T06:36:10.662Z,1.31
2022-12-07T06:38:37.690Z,1.40
2022-12-07T06:41:05.001Z,1.33
2022-12-07T06:43:31.631Z,1.34
2022-12-07T06:45:58.397Z,1.25
2022-12-07T06:48:25.287Z,1.15
2022-12-07T06:50:54.967Z,1.24
2022-12-07T06:53:22.704Z,1.26
2022-12-07T06:55:49.856Z,1.28
2022-12-07T06:58:16.674Z,1.23
2022-12-07T07:00:43.756Z,1.20
2022-12-07T07:03:10.492Z,1.25
2022-12-07T07:05:37.129Z,1.25
2022-12-07T07:10:50.902Z,1.50
2022-12-07T07:13:17.749Z,1.60
2022-12-07T07:15:44.452Z,1.58
2022-12-07T07:18:11.331Z,1.35
2022-12-07T07:20:38.759Z,1.62
2022-12-07T07:23:06.048Z,1.71
2022-12-07T07:25:33.173Z,1.52
2022-12-07T07:28:00.049Z,1.69
2022-12-07T07:30:27.124Z,1.67
2022-12-07T07:32:58.946Z,1.65
2022-12-07T07:35:26.873Z,1.70
2022-12-07T07:37:53.624Z,1.84
2022-12-07T07:40:20.400Z,1.90
2022-12-07T07:42:54.657Z,1.91
2022-12-07T07:45:23.162Z,1.82
2022-12-07T07:47:50.461Z,1.88
2022-12-07T07:50:17.787Z,1.89
2022-12-07T07:52:45.716Z,1.74
2022-12-07T07:55:12.931Z,1.73
2022-12-07T07:57:40.798Z,1.67
2022-12-07T08:00:11.272Z,1.62
2022-12-07T08:02:37.892Z,1.61
2022-12-07T08:05:04.845Z,1.57
2022-12-07T08:07:31.692Z,1.58
2022-12-07T08:09:58.371Z,1.36
2022-12-07T08:12:25.260Z,1.56
2022-12-07T08:14:52.036Z,1.53
2022-12-07T08:17:18.659Z,1.60
2022-12-07T08:19:45.337Z,1.72
2022-12-07T08:22:12.005Z,1.86
2022-12-07T08:24:38.641Z,2.00
2022-12-07T08:27:05.344Z,1.98
2022-12-07T08:29:32.159Z,2.08
2022-12-07T08:31:58.840Z,2.09
2022-12-07T08:34:25.503Z,2.25
2022-12-07T08:36:52.153Z,2.20
2022-12-07T08:39:34.138Z,2.29
2022-12-07T08:42:00.842Z,2.42
2022-12-07T08:44:27.466Z,2.31
2022-12-07T08:46:59.796Z,2.44
2022-12-07T08:49:33.057Z,2.50
2022-12-07T08:52:00.115Z,2.36
2022-12-07T08:54:27.136Z,2.67
2022-12-07T08:56:59.314Z,2.66
2022-12-07T08:59:27.943Z,2.61
2022-12-07T09:01:54.695Z,2.75
2022-12-07T09:04:21.831Z,2.82
2022-12-07T09:06:48.788Z,2.82
2022-12-07T09:09:16.118Z,2.91
2022-12-07T09:11:43.239Z,2.88
2022-12-07T09:14:09.921Z,2.87
2022-12-07T09:16:36.686Z,2.78
2022-12-07T09:19:03.612Z,2.71
2022-12-07T09:21:30.391Z,2.76
2022-12-07T09:23:57.095Z,2.81
2022-12-07T09:26:23.846Z,2.95
2022-12-07T09:28:50.453Z,2.97
2022-12-07T09:31:25.841Z,3.13
2022-12-07T09:33:58.097Z,3.33
2022-12-07T09:36:26.259Z,3.50
2022-12-07T09:38:53.198Z,3.51
2022-12-07T09:41:20.991Z,3.64
2022-12-07T09:43:48.210Z,3.76
2022-12-07T09:46:20.019Z,3.88
2022-12-07T09:48:48.601Z,3.84
2022-12-07T09:51:24.017Z,3.83
2022-12-07T09:53:53.390Z,3.88
2022-12-07T09:56:21.176Z,4.00
2022-12-07T09:58:48.478Z,4.15
2022-12-07T10:01:21.097Z,3.99
2022-12-07T10:03:54.238Z,4.05
2022-12-07T10:06:21.790Z,4.05
2022-12-07T10:08:48.827Z,4.13
2022-12-07T10:11:17.240Z,4.12
2022-12-07T10:13:50.130Z,4.39
2022-12-07T10:16:25.927Z,4.53
2022-12-07T10:18:53.213Z,4.59
2022-12-07T10:21:27.639Z,4.36
2022-12-07T10:24:04.826Z,4.27
2022-12-07T10:26:34.153Z,4.18
2022-12-07T10:29:15.409Z,4.09
2022-12-07T10:31:42.503Z,4.00
2022-12-07T10:34:25.753Z,3.95
2022-12-07T10:36:54.651Z,3.97
2022-12-07T10:39:23.665Z,4.06
2022-12-07T10:42:01.223Z,4.03
2022-12-07T10:44:32.639Z,4.21
2022-12-07T10:47:16.084Z,4.34
2022-12-07T10:50:07.392Z,4.36
2022-12-07T10:52:54.668Z,4.24
2022-12-07T10:55:39.768Z,4.19
2022-12-07T10:58:24.984Z,4.16
2022-12-07T11:00:57.654Z,4.20
2022-12-07T11:03:36.185Z,4.38
2022-12-07T11:06:23.829Z,4.38
2022-12-07T11:08:56.132Z,4.42
2022-12-07T11:11:58.878Z,4.46
2022-12-07T11:15:00.459Z,7.19
2022-12-07T11:17:41.595Z,8.83
2022-12-07T11:20:46.130Z,8.74
2022-12-07T11:23:21.469Z,9.58
2022-12-07T11:25:48.122Z,9.78
2022-12-07T11:28:45.902Z,8.45
2022-12-07T11:31:15.705Z,7.36
2022-12-07T11:33:52.993Z,6.98
2022-12-07T11:36:32.843Z,6.45
2022-12-07T11:39:05.737Z,6.03
2022-12-07T11:41:41.842Z,5.88
2022-12-07T11:44:34.632Z,7.20
2022-12-07T11:47:27.472Z,8.34
2022-12-07T11:50:16.055Z,9.66
2022-12-07T11:52:51.576Z,10.23
2022-12-07T11:55:41.433Z,10.18
2022-12-07T11:58:56.762Z,10.21
2022-12-07T12:01:34.450Z,10.02
2022-12-07T12:04:11.394Z,9.59
2022-12-07T12:06:37.957Z,9.04
2022-12-07T12:15:40.045Z,11.48
2022-12-07T12:18:15.505Z,10.15
2022-12-07T12:20:57.495Z,8.47
2022-12-07T12:23:33.138Z,7.47
2022-12-07T12:26:04.951Z,6.91
2022-12-07T12:28:55.717Z,6.64
2022-12-07T12:31:22.750Z,6.36
2022-12-07T12:34:04.897Z,6.43
2022-12-07T12:36:48.892Z,7.64
2022-12-07T12:39:20.074Z,9.30
2022-12-07T12:41:46.870Z,10.38
2022-12-07T12:44:16.273Z,10.72
2022-12-07T12:47:06.104Z,10.26
2022-12-07T12:49:37.487Z,9.67
2022-12-07T12:52:09.983Z,10.02
2022-12-07T12:54:38.194Z,8.68
2022-12-07T12:57:22.790Z,8.69
2022-12-07T12:59:52.135Z,9.23
2022-12-07T13:02:56.207Z,8.36
2022-12-07T13:05:28.353Z,7.28
2022-12-07T13:08:03.178Z,6.90
2022-12-07T13:10:33.810Z,6.84
2022-12-07T13:13:21.629Z,7.00
2022-12-07T13:16:06.807Z,6.73
2022-12-07T13:18:33.415Z,6.45
2022-12-07T13:21:01.634Z,6.33
2022-12-07T13:23:35.172Z,6.22
2022-12-07T13:26:08.416Z,6.13
2022-12-07T13:28:41.844Z,5.97
2022-12-07T13:31:34.246Z,5.66
2022-12-07T13:34:02.558Z,5.53
2022-12-07T13:36:49.538Z,4.92
2022-12-07T13:39:16.440Z,5.22
2022-12-07T13:41:43.967Z,4.97
2022-12-07T13:44:14.149Z,5.10
2022-12-07T13:47:47.849Z,5.09
2022-12-07T13:50:25.628Z,4.87
2022-12-07T13:52:57.077Z,4.97
2022-12-07T13:55:24.042Z,4.99
2022-12-07T13:57:53.844Z,4.89
2022-12-07T14:00:29.631Z,4.92
2022-12-07T14:02:56.392Z,4.94
2022-12-07T14:05:31.579Z,4.89
2022-12-07T14:08:01.262Z,4.99
2022-12-07T14:10:30.720Z,5.02
2022-12-07T14:12:58.857Z,4.94
2022-12-07T14:15:30.273Z,4.95
2022-12-07T14:17:58.079Z,4.90
2022-12-07T14:20:36.113Z,4.87
2022-12-07T14:23:10.251Z,4.86
2022-12-07T14:25:52.692Z,4.92
2022-12-07T14:28:34.054Z,4.96
2022-12-07T14:31:03.376Z,4.91
2022-12-07T14:33:30.457Z,4.88
2022-12-07T14:35:59.309Z,4.89
2022-12-07T14:38:27.316Z,4.87
2022-12-07T14:40:55.225Z,4.78
2022-12-07T14:43:21.842Z,4.83
2022-12-07T14:45:48.595Z,4.69
2022-12-07T14:53:57.160Z,4.31
2022-12-07T14:56:25.235Z,4.20
2022-12-07T14:58:52.115Z,4.19
2022-12-07T15:01:18.855Z,4.19
2022-12-07T15:03:45.730Z,4.12
2022-12-07T15:06:15.824Z,4.07
2022-12-07T15:08:46.100Z,4.05
2022-12-07T15:11:19.600Z,3.91
2022-12-07T15:14:05.134Z,3.84
2022-12-07T15:16:52.533Z,3.72
2022-12-07T15:19:28.520Z,3.70
2022-12-07T15:21:56.654Z,3.66
2022-12-07T15:24:25.157Z,3.67
2022-12-07T15:26:52.071Z,3.65
2022-12-07T15:29:22.805Z,3.45
2022-12-07T15:31:56.883Z,3.48
2022-12-07T15:34:33.486Z,3.43
2022-12-07T15:37:05.795Z,3.41
2022-12-07T15:39:32.704Z,3.29
2022-12-07T15:41:59.353Z,3.22
2022-12-07T15:44:44.747Z,3.27
2022-12-07T15:47:11.439Z,3.14
2022-12-07T15:49:38.044Z,3.08
2022-12-07T15:52:04.755Z,3.01
2022-12-07T15:54:33.372Z,3.10
2022-12-07T15:57:00.479Z,2.97
2022-12-07T15:59:29.185Z,2.88
2022-12-07T16:01:57.828Z,2.85
2022-12-07T16:04:24.592Z,2.94
2022-12-07T16:06:58.334Z,2.61
2022-12-07T16:09:25.067Z,2.34
2022-12-07T16:11:51.680Z,3.10
2022-12-07T16:14:23.064Z,2.98
2022-12-07T16:16:50.356Z,3.03
2022-12-07T16:19:17.267Z,2.92
2022-12-07T16:21:44.020Z,2.87
2022-12-07T16:24:11.295Z,2.73
2022-12-07T16:26:38.183Z,2.81
2022-12-07T16:29:05.060Z,2.86
2022-12-07T16:31:31.780Z,2.85
2022-12-07T16:33:59.373Z,3.06
2022-12-07T16:37:02.036Z,2.79
2022-12-07T16:39:15.954Z,2.92
2022-12-07T16:41:43.005Z,2.97
2022-12-07T16:44:12.086Z,2.99
2022-12-07T16:46:39.207Z,2.93
2022-12-07T16:49:06.346Z,2.95
2022-12-07T16:51:35.751Z,3.12
2022-12-07T16:54:02.378Z,3.04
2022-12-07T16:56:30.319Z,3.10
2022-12-07T16:58:59.509Z,3.10
2022-12-07T17:01:29.308Z,2.98
2022-12-07T17:03:57.918Z,3.12
2022-12-07T17:06:26.940Z,3.15
2022-12-07T17:08:54.387Z,3.09
2022-12-07T17:11:29.673Z,3.06
2022-12-07T17:14:15.027Z,3.08
2022-12-07T17:16:41.867Z,3.13
2022-12-07T17:19:11.429Z,3.21
2022-12-07T17:21:38.092Z,3.15
2022-12-07T17:24:07.462Z,3.08
2022-12-07T17:26:36.022Z,3.29
2022-12-07T17:29:05.320Z,3.13
2022-12-07T17:31:33.583Z,3.20
2022-12-07T17:34:00.424Z,3.12
2022-12-07T17:36:29.962Z,3.21
2022-12-07T17:38:57.529Z,3.19
2022-12-07T17:41:46.060Z,3.26
2022-12-07T17:44:18.319Z,3.18
2022-12-07T17:46:46.913Z,3.29
2022-12-07T17:49:14.269Z,3.31
2022-12-07T17:52:00.304Z,3.30
2022-12-07T17:54:27.080Z,3.34
2022-12-07T17:56:53.716Z,3.35
2022-12-07T17:59:23.562Z,3.40
2022-12-07T18:01:50.344Z,3.36
2022-12-07T18:04:17.138Z,3.40
2022-12-07T18:06:48.842Z,3.47
2022-12-07T18:09:19.094Z,3.39
2022-12-07T18:11:46.272Z,3.49
2022-12-07T18:14:12.908Z,3.35
2022-12-07T18:16:39.596Z,3.29
2022-12-07T18:19:08.124Z,3.30
2022-12-07T18:21:35.109Z,3.35
2022-12-07T18:24:04.617Z,3.03
2022-12-07T18:26:35.928Z,3.09
2022-12-07T18:29:03.315Z,3.07
2022-12-07T18:31:30.366Z,2.83
2022-12-07T18:34:02.073Z,2.87
2022-12-07T18:36:28.713Z,2.86
2022-12-07T18:38:55.430Z,2.84
2022-12-07T18:41:22.389Z,2.82
2022-12-07T18:43:49.157Z,3.04
2022-12-07T18:46:19.698Z,2.88
2022-12-07T18:48:47.660Z,2.95
2022-12-07T18:51:15.791Z,3.08
2022-12-07T18:53:43.297Z,3.06
2022-12-07T18:56:16.896Z,3.05
2022-12-07T18:59:04.570Z,2.99
2022-12-07T19:01:31.759Z,2.86
2022-12-07T19:03:59.682Z,3.05
2022-12-07T19:06:27.368Z,2.98
2022-12-07T19:08:55.498Z,2.94
2022-12-07T19:11:43.714Z,2.88
2022-12-07T19:14:11.163Z,2.83
2022-12-07T19:16:38.512Z,2.75
2022-12-07T19:19:05.236Z,2.72
2022-12-07T19:21:32.567Z,2.55
2022-12-07T19:23:59.203Z,2.72
2022-12-07T19:26:25.899Z,2.70
2022-12-07T19:28:52.709Z,2.73
2022-12-07T19:31:19.384Z,2.76
2022-12-07T19:33:46.088Z,2.73
2022-12-07T19:36:12.782Z,2.82
2022-12-07T19:38:39.418Z,2.85
2022-12-07T19:41:07.557Z,2.85
2022-12-07T19:43:35.248Z,2.83
2022-12-07T19:46:09.365Z,2.75
2022-12-07T19:48:36.414Z,2.73
2022-12-07T19:51:06.582Z,2.71
2022-12-07T19:53:33.502Z,2.58
2022-12-07T19:56:00.407Z,2.63
2022-12-07T19:58:27.190Z,2.65
2022-12-07T20:00:53.958Z,2.66
2022-12-07T20:03:20.821Z,2.67
2022-12-07T20:05:47.840Z,2.70
2022-12-07T20:08:14.534Z,2.68
2022-12-07T20:10:41.954Z,2.73
2022-12-07T20:13:29.478Z,2.77
2022-12-07T20:16:18.001Z,2.80
2022-12-07T20:18:43.249Z,2.87
2022-12-07T20:21:13.923Z,2.56
2022-12-07T20:23:44.057Z,2.60
2022-12-07T20:26:18.286Z,2.36
2022-12-07T20:28:46.928Z,2.50
2022-12-07T20:34:00.681Z,2.29
2022-12-07T20:36:33.216Z,1.90
2022-12-07T20:39:07.004Z,2.23
2022-12-07T20:41:53.903Z,2.21
2022-12-07T20:44:21.633Z,1.98
2022-12-07T20:46:50.981Z,1.67
2022-12-07T20:49:18.771Z,1.61
2022-12-07T20:51:46.407Z,1.81
2022-12-07T20:54:17.131Z,1.64
2022-12-07T20:56:44.298Z,1.68
2022-12-07T20:59:15.095Z,1.58
2022-12-07T21:01:43.342Z,1.07
2022-12-07T21:04:12.890Z,0.97
2022-12-07T21:06:41.768Z,1.02
2022-12-07T21:09:11.480Z,0.87
2022-12-07T21:11:39.535Z,1.84
2022-12-07T21:14:07.062Z,1.81
2022-12-07T21:16:33.771Z,1.82
2022-12-07T21:19:02.904Z,1.80
2022-12-07T21:21:30.708Z,1.94
2022-12-07T21:24:02.125Z,2.00
2022-12-07T21:26:31.190Z,1.99
2022-12-07T21:28:57.961Z,1.93
2022-12-07T21:31:24.952Z,1.99
2022-12-07T21:33:51.784Z,1.96
2022-12-07T21:36:24.159Z,1.97
2022-12-07T21:38:51.440Z,2.00
2022-12-07T21:41:19.388Z,1.97
2022-12-07T21:43:47.901Z,1.73
2022-12-07T21:46:19.227Z,1.78
2022-12-07T21:49:14.496Z,1.63
2022-12-07T21:51:43.520Z,1.58
2022-12-07T21:54:12.587Z,1.53
2022-12-07T21:56:42.321Z,1.22
2022-12-07T21:59:16.625Z,1.69
2022-12-07T22:01:47.500Z,1.41
2022-12-07T22:04:19.729Z,1.78
2022-12-07T22:06:48.243Z,1.63
2022-12-07T22:09:16.056Z,1.92
2022-12-07T22:11:42.890Z,1.94
2022-12-07T22:14:28.929Z,1.99
2022-12-07T22:16:56.422Z,2.08
2022-12-07T22:19:23.466Z,1.51
2022-12-07T22:21:50.471Z,1.49
2022-12-07T22:24:17.825Z,1.83
2022-12-07T22:26:44.898Z,1.71
2022-12-07T22:29:12.504Z,1.80
2022-12-07T22:31:41.373Z,2.08
2022-12-07T22:34:14.889Z,1.99
2022-12-07T22:36:41.948Z,1.68
2022-12-07T22:39:09.665Z,2.06
2022-12-07T22:41:36.637Z,1.96
2022-12-07T22:44:06.600Z,1.71
2022-12-07T22:46:34.371Z,1.72
2022-12-07T22:49:02.031Z,1.61
2022-12-07T22:51:31.570Z,1.78
2022-12-07T22:54:00.790Z,1.45
2022-12-07T22:56:29.434Z,1.67
2022-12-07T22:58:57.146Z,1.61
2022-12-07T23:01:24.925Z,1.62
2022-12-07T23:03:53.157Z,1.40
2022-12-07T23:06:31.545Z,1.80
2022-12-07T23:09:03.120Z,1.48
2022-12-07T23:11:50.704Z,1.90
2022-12-07T23:14:21.244Z,1.63
2022-12-07T23:16:48.038Z,1.54
2022-12-07T23:19:15.084Z,1.73
2022-12-07T23:21:42.938Z,1.67
2022-12-07T23:24:12.455Z,1.48
2022-12-07T23:26:40.306Z,1.59
2022-12-07T23:29:06.931Z,1.55
2022-12-07T23:31:34.754Z,1.48
2022-12-07T23:34:01.618Z,1.50
2022-12-07T23:36:28.519Z,1.49
2022-12-07T23:38:57.118Z,1.50
2022-12-07T23:41:27.012Z,1.36
2022-12-07T23:43:55.440Z,1.44
2022-12-07T23:46:25.012Z,1.34
2022-12-07T23:48:53.493Z,1.33
2022-12-07T23:51:20.711Z,1.30
2022-12-07T23:53:49.973Z,1.30
2022-12-07T23:56:22.672Z,1.22
2022-12-07T23:58:51.041Z,1.18
